createdAt,value
2023-01-26T00:01:14.813Z,-1.31
2023-01-26T00:03:41.398Z,-1.26
2023-01-26T00:06:10.059Z,-1.26
2023-01-26T00:08:44.363Z,-1.29
2023-01-26T00:11:13.074Z,-1.24
2023-01-26T00:13:39.945Z,-1.17
2023-01-26T00:16:09.989Z,-1.31
2023-01-26T00:18:37.670Z,-1.25
2023-01-26T00:21:04.266Z,-1.26
2023-01-26T00:23:32.320Z,-1.40
2023-01-26T00:25:58.788Z,-1.32
2023-01-26T00:28:25.269Z,-1.27
2023-01-26T00:30:51.640Z,-1.16
2023-01-26T00:33:18.029Z,-1.27
2023-01-26T00:35:44.730Z,-1.25
2023-01-26T00:38:14.344Z,-1.25
2023-01-26T00:40:41.382Z,-1.17
2023-01-26T00:43:07.775Z,-1.16
2023-01-26T00:45:34.883Z,-1.13
2023-01-26T00:48:01.467Z,-1.12
2023-01-26T00:50:27.888Z,-1.07
2023-01-26T00:52:54.243Z,-1.19
2023-01-26T00:55:20.719Z,-1.07
2023-01-26T00:57:47.065Z,-1.21
2023-01-26T01:00:16.593Z,-1.12
2023-01-26T01:02:43.690Z,-1.13
2023-01-26T01:05:10.290Z,-1.09
2023-01-26T01:07:36.827Z,-1.18
2023-01-26T01:10:03.457Z,-1.13
2023-01-26T01:12:29.868Z,-1.40
2023-01-26T01:14:56.256Z,-1.37
2023-01-26T01:17:22.634Z,-1.34
2023-01-26T01:19:49.029Z,-1.16
2023-01-26T01:22:15.412Z,-1.19
2023-01-26T01:24:41.989Z,-1.14
2023-01-26T01:27:08.400Z,-1.05
2023-01-26T01:29:34.822Z,-1.24
2023-01-26T01:32:01.309Z,-1.12
2023-01-26T01:34:27.793Z,-0.99
2023-01-26T01:36:54.160Z,-1.03
2023-01-26T01:39:20.583Z,-0.91
2023-01-26T01:41:46.976Z,-1.00
2023-01-26T01:44:18.666Z,-1.00
2023-01-26T01:46:49.172Z,-0.99
2023-01-26T01:49:24.032Z,-1.17
2023-01-26T01:51:53.080Z,-1.07
2023-01-26T01:54:23.175Z,-1.08
2023-01-26T01:56:53.826Z,-1.11
2023-01-26T01:59:21.329Z,-1.07
2023-01-26T02:01:49.688Z,-1.13
2023-01-26T02:04:16.152Z,-1.21
2023-01-26T02:06:47.661Z,-1.17
2023-01-26T02:09:34.256Z,-1.66
2023-01-26T02:12:02.515Z,-1.48
2023-01-26T02:14:29.458Z,-1.26
2023-01-26T02:16:55.864Z,-1.35
2023-01-26T02:19:30.827Z,-1.58
2023-01-26T02:22:00.137Z,-1.59
2023-01-26T02:24:29.831Z,-1.32
2023-01-26T02:26:56.447Z,-1.58
2023-01-26T02:29:23.253Z,-1.28
2023-01-26T02:31:49.757Z,-1.19
2023-01-26T02:34:16.224Z,-1.03
2023-01-26T02:36:42.602Z,-1.06
2023-01-26T02:39:11.855Z,-1.11
2023-01-26T02:41:57.617Z,-1.60
2023-01-26T02:44:24.474Z,-1.41
2023-01-26T02:46:50.906Z,-1.71
2023-01-26T02:49:35.663Z,-1.28
2023-01-26T02:52:02.067Z,-1.24
2023-01-26T02:54:47.251Z,-1.63
2023-01-26T02:57:13.630Z,-1.43
2023-01-26T02:59:40.027Z,-1.47
2023-01-26T03:02:06.597Z,-1.55
2023-01-26T03:04:33.052Z,-1.86
2023-01-26T03:06:59.503Z,-1.61
2023-01-26T03:09:25.926Z,-1.63
2023-01-26T03:11:52.645Z,-1.76
2023-01-26T03:14:19.036Z,-1.72
2023-01-26T03:16:45.490Z,-1.77
2023-01-26T03:19:32.479Z,-1.91
2023-01-26T03:22:18.048Z,-1.56
2023-01-26T03:25:02.928Z,-1.47
2023-01-26T03:27:33.365Z,-1.57
2023-01-26T03:29:59.781Z,-1.45
2023-01-26T03:32:26.316Z,-1.95
2023-01-26T03:34:52.828Z,-1.67
2023-01-26T03:37:22.587Z,-1.43
2023-01-26T03:40:08.833Z,-1.67
2023-01-26T03:42:54.624Z,-1.89
2023-01-26T03:45:40.060Z,-1.75
2023-01-26T03:48:30.265Z,-1.71
2023-01-26T03:51:15.839Z,-1.77
2023-01-26T03:54:01.307Z,-1.38
2023-01-26T03:56:32.278Z,-1.44
2023-01-26T03:59:07.970Z,-1.65
2023-01-26T04:02:01.349Z,-1.29
2023-01-26T04:04:46.384Z,-1.25
2023-01-26T04:07:31.101Z,-1.23
2023-01-26T04:09:57.536Z,-1.39
2023-01-26T04:12:23.917Z,-1.42
2023-01-26T04:15:09.055Z,-1.33
2023-01-26T04:17:53.939Z,-1.17
2023-01-26T04:20:38.933Z,-1.30
2023-01-26T04:23:05.315Z,-1.25
2023-01-26T04:25:31.706Z,-1.12
2023-01-26T04:27:58.111Z,-1.36
2023-01-26T04:30:24.534Z,-1.11
2023-01-26T04:32:51.666Z,-0.97
2023-01-26T04:35:18.063Z,-0.96
2023-01-26T04:37:44.494Z,-1.15
2023-01-26T04:40:11.810Z,-1.31
2023-01-26T04:42:39.391Z,-1.27
2023-01-26T04:45:06.117Z,-1.43
2023-01-26T04:47:32.623Z,-1.20
2023-01-26T04:49:59.164Z,-1.14
2023-01-26T04:52:25.563Z,-1.19
2023-01-26T04:54:51.983Z,-1.00
2023-01-26T04:57:21.008Z,-1.10
2023-01-26T04:59:47.374Z,-1.06
2023-01-26T05:02:13.907Z,-1.39
2023-01-26T05:04:40.392Z,-1.08
2023-01-26T05:07:06.777Z,-1.06
2023-01-26T05:09:33.135Z,-1.11
2023-01-26T05:12:19.488Z,-1.53
2023-01-26T05:14:45.989Z,-1.47
2023-01-26T05:17:12.380Z,-1.52
2023-01-26T05:19:38.764Z,-1.22
2023-01-26T05:22:05.189Z,-1.40
2023-01-26T05:24:31.554Z,-1.22
2023-01-26T05:27:17.928Z,-1.16
2023-01-26T05:29:44.389Z,-1.09
2023-01-26T05:32:10.775Z,-1.02
2023-01-26T05:34:37.310Z,-1.21
2023-01-26T05:37:03.739Z,-1.07
2023-01-26T05:39:30.145Z,-1.24
2023-01-26T05:41:56.924Z,-0.96
2023-01-26T05:44:24.851Z,-1.04
2023-01-26T05:46:51.930Z,-0.92
2023-01-26T05:49:18.456Z,-0.79
2023-01-26T05:51:44.856Z,-0.81
2023-01-26T05:54:11.380Z,-1.18
2023-01-26T05:56:37.778Z,-0.97
2023-01-26T05:59:04.256Z,-1.18
2023-01-26T06:01:30.755Z,-0.97
2023-01-26T06:03:57.146Z,-0.97
2023-01-26T06:06:23.566Z,-1.08
2023-01-26T06:08:49.938Z,-1.05
2023-01-26T06:11:16.471Z,-1.17
2023-01-26T06:13:42.881Z,-1.03
2023-01-26T06:16:09.273Z,-0.99
2023-01-26T06:18:35.653Z,-1.02
2023-01-26T06:21:02.019Z,-0.86
2023-01-26T06:23:28.548Z,-0.95
2023-01-26T06:26:00.190Z,-1.06
2023-01-26T06:28:27.643Z,-1.12
2023-01-26T06:31:02.549Z,-1.00
2023-01-26T06:33:29.373Z,-1.02
2023-01-26T06:35:56.524Z,-1.05
2023-01-26T06:38:23.000Z,-1.13
2023-01-26T06:40:50.543Z,-1.27
2023-01-26T06:43:16.903Z,-1.05
2023-01-26T06:45:43.434Z,-0.81
2023-01-26T06:48:09.980Z,-0.83
2023-01-26T06:50:36.363Z,-0.87
2023-01-26T06:53:25.953Z,-0.81
2023-01-26T06:55:52.317Z,-0.76
2023-01-26T06:58:18.749Z,-0.76
2023-01-26T07:00:45.204Z,-0.86
2023-01-26T07:03:11.736Z,-0.82
2023-01-26T07:05:38.117Z,-1.06
2023-01-26T07:08:06.463Z,-1.14
2023-01-26T07:10:33.031Z,-0.93
2023-01-26T07:12:59.505Z,-0.74
2023-01-26T07:15:25.949Z,-0.91
2023-01-26T07:17:52.574Z,-1.03
2023-01-26T07:20:19.108Z,-0.93
2023-01-26T07:22:45.567Z,-1.23
2023-01-26T07:25:11.934Z,-1.34
2023-01-26T07:27:38.474Z,-1.20
2023-01-26T07:30:05.465Z,-0.96
2023-01-26T07:32:31.853Z,-0.94
2023-01-26T07:34:58.309Z,-0.84
2023-01-26T07:37:28.402Z,-0.79
2023-01-26T07:39:54.855Z,-0.83
2023-01-26T07:42:21.273Z,-1.12
2023-01-26T07:44:47.654Z,-1.05
2023-01-26T07:47:14.611Z,-1.07
2023-01-26T07:49:41.259Z,-1.29
2023-01-26T07:52:09.158Z,-0.94
2023-01-26T07:54:35.633Z,-1.00
2023-01-26T07:57:02.060Z,-0.92
2023-01-26T07:59:28.463Z,-0.94
2023-01-26T08:01:54.974Z,-0.95
2023-01-26T08:04:21.401Z,-0.77
2023-01-26T08:06:47.774Z,-1.17
2023-01-26T08:09:14.261Z,-1.08
2023-01-26T08:11:40.626Z,-1.03
2023-01-26T08:14:07.118Z,-1.07
2023-01-26T08:16:33.531Z,-1.07
2023-01-26T08:18:59.956Z,-0.85
2023-01-26T08:21:26.567Z,-0.95
2023-01-26T08:23:53.024Z,-0.99
2023-01-26T08:26:20.193Z,-0.70
2023-01-26T08:28:46.853Z,-0.90
2023-01-26T08:31:18.711Z,-0.72
2023-01-26T08:33:46.363Z,-0.96
2023-01-26T08:36:14.663Z,-1.09
2023-01-26T08:38:42.067Z,-0.89
2023-01-26T08:41:08.949Z,-0.86
2023-01-26T08:43:35.820Z,-0.79
2023-01-26T08:46:02.957Z,-0.62
2023-01-26T08:48:31.040Z,-0.62
2023-01-26T08:50:59.741Z,-0.34
2023-01-26T08:53:26.646Z,-0.27
2023-01-26T08:55:53.019Z,-0.19
2023-01-26T08:58:20.438Z,-0.20
2023-01-26T09:00:46.937Z,-0.23
2023-01-26T09:03:13.525Z,-0.18
2023-01-26T09:05:40.197Z,-0.61
2023-01-26T09:08:08.329Z,-0.24
2023-01-26T09:10:34.995Z,-0.15
2023-01-26T09:13:01.823Z,-0.19
2023-01-26T09:15:28.570Z,-0.21
2023-01-26T09:17:55.090Z,-0.15
2023-01-26T09:20:21.607Z,-0.45
2023-01-26T09:22:48.005Z,-0.59
2023-01-26T09:25:14.865Z,-0.70
2023-01-26T09:27:41.373Z,-0.96
2023-01-26T09:30:09.184Z,-0.75
2023-01-26T09:32:35.557Z,-0.85
2023-01-26T09:35:01.942Z,-0.55
2023-01-26T09:37:28.427Z,-0.64
2023-01-26T09:39:54.832Z,-0.31
2023-01-26T09:42:40.057Z,-0.74
2023-01-26T09:45:13.011Z,-0.73
2023-01-26T09:47:55.484Z,-0.63
2023-01-26T09:50:25.901Z,-0.32
2023-01-26T09:52:54.325Z,-0.24
2023-01-26T09:55:22.334Z,-0.48
2023-01-26T09:58:00.939Z,-0.14
2023-01-26T10:00:49.701Z,0.02
2023-01-26T10:03:25.145Z,-0.09
2023-01-26T10:06:15.553Z,-0.04
2023-01-26T10:08:43.676Z,-0.17
2023-01-26T10:11:20.689Z,-0.18
2023-01-26T10:13:55.156Z,-0.39
2023-01-26T10:16:24.845Z,-0.61
2023-01-26T10:18:59.330Z,-0.18
2023-01-26T10:21:30.482Z,-0.50
2023-01-26T10:23:59.303Z,-0.35
2023-01-26T10:26:32.685Z,-0.57
2023-01-26T10:28:59.237Z,-0.09
2023-01-26T10:31:28.806Z,-0.04
2023-01-26T10:34:25.193Z,-0.13
2023-01-26T10:36:56.462Z,0.03
2023-01-26T10:39:22.894Z,-0.46
2023-01-26T10:42:03.183Z,-0.07
2023-01-26T10:44:34.721Z,-0.15
2023-01-26T10:47:15.713Z,-0.07
2023-01-26T10:49:43.116Z,-0.28
2023-01-26T10:52:18.693Z,-0.22
2023-01-26T10:54:46.301Z,0.13
2023-01-26T10:57:28.491Z,0.09
2023-01-26T10:59:54.809Z,-0.03
2023-01-26T11:02:24.475Z,-0.08
2023-01-26T11:05:09.249Z,0.07
2023-01-26T11:07:40.711Z,-0.01
2023-01-26T11:10:28.485Z,-0.09
2023-01-26T11:13:20.292Z,0.29
2023-01-26T11:16:00.826Z,0.41
2023-01-26T11:18:51.597Z,0.05
2023-01-26T11:21:36.306Z,-0.12
2023-01-26T11:24:34.754Z,0.14
2023-01-26T11:27:25.549Z,0.29
2023-01-26T11:30:16.890Z,0.48
2023-01-26T11:33:17.177Z,0.48
2023-01-26T11:36:12.194Z,0.42
2023-01-26T11:38:43.550Z,0.38
2023-01-26T11:41:46.002Z,-0.01
2023-01-26T11:44:25.425Z,0.26
2023-01-26T11:47:22.706Z,0.36
2023-01-26T11:50:05.124Z,0.38
2023-01-26T11:52:35.397Z,0.32
2023-01-26T11:55:18.871Z,0.23
2023-01-26T11:58:24.188Z,0.15
2023-01-26T12:00:57.201Z,0.14
2023-01-26T12:03:45.434Z,0.04
2023-01-26T12:06:28.004Z,-0.06
2023-01-26T12:09:00.228Z,0.10
2023-01-26T12:11:38.266Z,0.11
2023-01-26T12:14:04.596Z,0.27
2023-01-26T12:16:40.666Z,0.31
2023-01-26T12:19:25.712Z,0.28
2023-01-26T12:21:54.955Z,0.31
2023-01-26T12:25:01.194Z,0.44
2023-01-26T12:27:25.753Z,0.50
2023-01-26T12:30:03.836Z,0.35
2023-01-26T12:32:30.211Z,0.31
2023-01-26T12:34:57.883Z,0.55
2023-01-26T12:37:34.767Z,0.36
2023-01-26T12:40:15.329Z,0.63
2023-01-26T12:43:12.637Z,0.33
2023-01-26T12:45:42.471Z,0.40
2023-01-26T12:48:40.402Z,0.59
2023-01-26T12:51:11.534Z,0.31
2023-01-26T12:53:51.497Z,0.42
2023-01-26T12:56:28.255Z,0.46
2023-01-26T12:58:56.753Z,0.38
2023-01-26T13:01:26.176Z,0.53
2023-01-26T13:03:56.033Z,0.74
2023-01-26T13:06:26.115Z,0.54
2023-01-26T13:09:04.419Z,0.63
2023-01-26T13:11:54.290Z,0.58
2023-01-26T13:14:38.783Z,0.54
2023-01-26T13:17:17.430Z,0.32
2023-01-26T13:19:43.862Z,0.45
2023-01-26T13:22:19.575Z,0.64
2023-01-26T13:24:48.596Z,0.57
2023-01-26T13:27:39.147Z,0.52
2023-01-26T13:30:26.912Z,0.28
2023-01-26T13:33:13.749Z,0.33
2023-01-26T13:35:40.570Z,0.45
2023-01-26T13:38:14.063Z,0.50
2023-01-26T13:40:44.381Z,0.27
2023-01-26T13:43:31.970Z,0.15
2023-01-26T13:46:22.000Z,0.23
2023-01-26T13:48:50.232Z,0.58
2023-01-26T13:51:27.916Z,0.46
2023-01-26T13:54:01.489Z,0.18
2023-01-26T13:56:36.237Z,0.14
2023-01-26T13:59:10.965Z,0.53
2023-01-26T14:01:45.681Z,0.54
2023-01-26T14:04:22.673Z,0.54
2023-01-26T14:07:18.891Z,0.64
2023-01-26T14:09:47.804Z,0.83
2023-01-26T14:12:21.988Z,0.78
2023-01-26T14:14:50.761Z,0.78
2023-01-26T14:17:33.595Z,0.60
2023-01-26T14:20:00.570Z,0.58
2023-01-26T14:22:27.557Z,0.91
2023-01-26T14:24:54.502Z,0.71
2023-01-26T14:27:30.783Z,0.75
2023-01-26T14:29:57.515Z,0.64
2023-01-26T14:32:25.456Z,0.86
2023-01-26T14:34:54.043Z,0.82
2023-01-26T14:37:20.559Z,0.71
2023-01-26T14:39:48.001Z,0.90
2023-01-26T14:42:16.456Z,0.89
2023-01-26T14:44:42.960Z,1.09
2023-01-26T14:47:16.623Z,0.94
2023-01-26T14:50:17.580Z,1.00
2023-01-26T14:52:44.892Z,1.03
2023-01-26T14:55:33.295Z,0.98
2023-01-26T14:58:01.409Z,1.03
2023-01-26T15:00:29.936Z,1.19
2023-01-26T15:02:58.739Z,1.22
2023-01-26T15:05:37.017Z,1.20
2023-01-26T15:08:21.383Z,1.14
2023-01-26T15:11:18.235Z,1.34
2023-01-26T15:13:46.688Z,1.28
2023-01-26T15:16:18.782Z,1.39
2023-01-26T15:18:47.607Z,1.48
2023-01-26T15:21:15.025Z,1.42
2023-01-26T15:23:44.178Z,1.33
2023-01-26T15:26:23.285Z,1.42
2023-01-26T15:28:54.649Z,1.30
2023-01-26T15:31:25.394Z,1.32
2023-01-26T15:33:53.948Z,1.42
2023-01-26T15:36:43.509Z,1.46
2023-01-26T15:39:14.825Z,1.41
2023-01-26T15:41:42.573Z,1.40
2023-01-26T15:44:17.266Z,1.47
2023-01-26T15:46:43.819Z,1.43
2023-01-26T15:49:11.055Z,1.38
2023-01-26T15:51:37.986Z,1.44
2023-01-26T15:54:05.001Z,1.49
2023-01-26T15:56:31.690Z,1.72
2023-01-26T15:58:58.162Z,1.65
2023-01-26T16:01:24.608Z,1.67
2023-01-26T16:03:51.618Z,1.61
2023-01-26T16:06:26.487Z,1.76
2023-01-26T16:08:54.219Z,1.83
2023-01-26T16:11:22.153Z,1.91
2023-01-26T16:14:02.295Z,1.90
2023-01-26T16:16:29.678Z,1.76
2023-01-26T16:18:56.647Z,1.86
2023-01-26T16:21:25.974Z,1.73
2023-01-26T16:23:52.407Z,1.72
2023-01-26T16:26:19.278Z,1.65
2023-01-26T16:28:46.397Z,1.65
2023-01-26T16:31:21.387Z,1.68
2023-01-26T16:33:48.787Z,1.76
2023-01-26T16:36:16.416Z,1.89
2023-01-26T16:38:43.294Z,1.89
2023-01-26T16:41:29.770Z,1.88
2023-01-26T16:43:58.645Z,1.83
2023-01-26T16:46:25.673Z,1.85
2023-01-26T16:48:52.181Z,1.85
2023-01-26T16:51:27.710Z,1.89
2023-01-26T16:53:55.367Z,1.98
2023-01-26T16:56:22.631Z,1.93
2023-01-26T16:58:49.345Z,1.87
2023-01-26T17:01:38.016Z,1.83
2023-01-26T17:04:05.232Z,1.82
2023-01-26T17:06:32.598Z,1.81
2023-01-26T17:08:58.986Z,1.87
2023-01-26T17:11:28.075Z,1.93
2023-01-26T17:14:03.015Z,1.97
2023-01-26T17:16:29.824Z,2.04
2023-01-26T17:18:56.559Z,1.88
2023-01-26T17:21:23.119Z,1.94
2023-01-26T17:23:53.635Z,1.90
2023-01-26T17:26:21.378Z,1.79
2023-01-26T17:28:50.017Z,1.68
2023-01-26T17:31:17.999Z,1.82
2023-01-26T17:33:45.728Z,2.00
2023-01-26T17:36:12.934Z,2.01
2023-01-26T17:38:39.436Z,1.98
2023-01-26T17:41:06.318Z,1.93
2023-01-26T17:43:32.907Z,1.99
2023-01-26T17:46:06.842Z,2.01
2023-01-26T17:48:35.172Z,2.01
2023-01-26T17:51:04.776Z,2.01
2023-01-26T17:53:31.159Z,1.98
2023-01-26T17:55:57.660Z,1.94
2023-01-26T17:58:24.036Z,1.93
2023-01-26T18:00:50.446Z,1.92
2023-01-26T18:03:16.943Z,1.81
2023-01-26T18:05:53.781Z,1.85
2023-01-26T18:08:20.367Z,1.82
2023-01-26T18:10:47.005Z,1.83
2023-01-26T18:13:13.907Z,1.86
2023-01-26T18:15:40.415Z,1.91
2023-01-26T18:18:06.999Z,1.90
2023-01-26T18:20:33.448Z,1.87
2023-01-26T18:23:00.277Z,2.00
2023-01-26T18:25:26.719Z,2.08
2023-01-26T18:27:53.137Z,2.09
2023-01-26T18:30:19.566Z,2.08
2023-01-26T18:32:45.986Z,2.09
2023-01-26T18:35:12.666Z,2.00
2023-01-26T18:37:39.331Z,1.86
2023-01-26T18:40:07.879Z,1.94
2023-01-26T18:42:34.274Z,1.99
2023-01-26T18:45:01.304Z,1.91
2023-01-26T18:47:28.181Z,1.92
2023-01-26T18:49:55.021Z,1.99
2023-01-26T18:52:21.773Z,1.85
2023-01-26T18:54:48.258Z,1.76
2023-01-26T18:57:14.792Z,2.06
2023-01-26T18:59:41.258Z,2.00
2023-01-26T19:02:07.766Z,1.80
2023-01-26T19:04:34.327Z,1.84
2023-01-26T19:07:00.784Z,2.02
2023-01-26T19:09:30.814Z,2.10
2023-01-26T19:11:58.232Z,2.14
2023-01-26T19:14:24.680Z,2.00
2023-01-26T19:16:51.211Z,1.93
2023-01-26T19:19:17.640Z,1.99
2023-01-26T19:21:44.021Z,1.91
2023-01-26T19:24:10.554Z,1.90
2023-01-26T19:26:36.956Z,1.91
2023-01-26T19:29:03.861Z,1.93
2023-01-26T19:31:30.784Z,1.99
2023-01-26T19:34:00.851Z,1.95
2023-01-26T19:36:29.042Z,2.11
2023-01-26T19:38:55.605Z,1.98
2023-01-26T19:41:22.879Z,1.90
2023-01-26T19:43:50.320Z,1.95
2023-01-26T19:46:17.640Z,1.98
2023-01-26T19:48:44.476Z,1.81
2023-01-26T19:51:16.232Z,1.96
2023-01-26T19:53:44.340Z,1.88
2023-01-26T19:56:16.739Z,1.94
2023-01-26T19:58:43.664Z,1.94
2023-01-26T20:01:11.944Z,1.83
2023-01-26T20:03:38.970Z,1.91
2023-01-26T20:06:06.163Z,2.03
2023-01-26T20:08:33.412Z,2.12
2023-01-26T20:11:06.942Z,2.02
2023-01-26T20:13:33.783Z,2.07
2023-01-26T20:16:00.436Z,1.96
2023-01-26T20:18:26.887Z,1.98
2023-01-26T20:20:54.346Z,2.08
2023-01-26T20:23:21.228Z,1.93
2023-01-26T20:25:47.935Z,1.97
2023-01-26T20:28:14.680Z,1.87
2023-01-26T20:30:41.700Z,1.95
2023-01-26T20:33:08.144Z,2.02
2023-01-26T20:35:34.996Z,1.86
2023-01-26T20:38:01.435Z,1.83
2023-01-26T20:40:28.888Z,1.94
2023-01-26T20:42:55.319Z,1.86
2023-01-26T20:45:22.888Z,1.90
2023-01-26T20:47:49.293Z,1.89
2023-01-26T20:50:15.777Z,1.94
2023-01-26T20:52:43.726Z,1.90
2023-01-26T20:55:11.925Z,1.94
2023-01-26T20:57:38.554Z,1.87
2023-01-26T21:00:07.168Z,1.96
2023-01-26T21:02:33.565Z,1.97
2023-01-26T21:05:00.614Z,1.96
2023-01-26T21:07:28.518Z,1.95
2023-01-26T21:09:54.991Z,1.92
2023-01-26T21:12:21.359Z,1.92
2023-01-26T21:14:48.134Z,1.83
2023-01-26T21:17:15.613Z,1.95
2023-01-26T21:19:41.976Z,1.88
2023-01-26T21:22:08.398Z,1.96
2023-01-26T21:24:35.381Z,2.01
2023-01-26T21:27:02.752Z,1.93
2023-01-26T21:29:29.189Z,1.93
2023-01-26T21:31:55.685Z,1.94
2023-01-26T21:34:22.166Z,1.91
2023-01-26T21:36:48.737Z,1.85
2023-01-26T21:39:15.260Z,1.85
2023-01-26T21:41:56.583Z,1.82
2023-01-26T21:44:28.462Z,1.75
2023-01-26T21:46:57.458Z,1.76
2023-01-26T21:49:24.392Z,1.97
2023-01-26T21:52:10.065Z,1.97
2023-01-26T21:54:36.779Z,1.94
2023-01-26T21:57:24.971Z,1.90
2023-01-26T21:59:51.785Z,1.97
2023-01-26T22:02:18.260Z,1.95
2023-01-26T22:04:44.698Z,2.01
2023-01-26T22:07:11.093Z,2.17
2023-01-26T22:09:38.781Z,2.09
2023-01-26T22:12:05.489Z,2.12
2023-01-26T22:14:31.855Z,2.08
2023-01-26T22:16:58.260Z,2.12
2023-01-26T22:19:25.820Z,2.08
2023-01-26T22:21:52.192Z,2.18
2023-01-26T22:24:18.921Z,2.08
2023-01-26T22:26:45.436Z,2.09
2023-01-26T22:29:14.878Z,2.11
2023-01-26T22:31:41.838Z,2.04
2023-01-26T22:34:10.472Z,1.98
2023-01-26T22:36:36.916Z,1.97
2023-01-26T22:39:03.373Z,2.01
2023-01-26T22:41:30.474Z,2.06
2023-01-26T22:43:58.730Z,1.91
2023-01-26T22:46:26.312Z,2.08
2023-01-26T22:48:53.028Z,1.96
2023-01-26T22:51:21.713Z,1.93
2023-01-26T22:53:49.189Z,1.93
2023-01-26T22:56:16.300Z,2.00
2023-01-26T22:58:57.189Z,1.92
2023-01-26T23:01:25.470Z,1.88
2023-01-26T23:03:53.377Z,1.95
2023-01-26T23:06:20.230Z,2.01
2023-01-26T23:08:46.718Z,2.08
2023-01-26T23:11:32.288Z,2.09
2023-01-26T23:14:00.115Z,2.09
2023-01-26T23:16:27.279Z,2.13
2023-01-26T23:18:55.568Z,2.14
2023-01-26T23:21:22.497Z,2.09
2023-01-26T23:23:48.954Z,2.07
2023-01-26T23:26:15.430Z,2.16
2023-01-26T23:28:43.033Z,1.99
2023-01-26T23:31:11.269Z,2.01
2023-01-26T23:33:38.515Z,2.02
2023-01-26T23:36:06.115Z,2.05
2023-01-26T23:38:32.948Z,2.05
2023-01-26T23:41:00.496Z,2.14
2023-01-26T23:43:27.329Z,2.03
2023-01-26T23:45:56.219Z,2.01
2023-01-26T23:48:23.195Z,1.95
2023-01-26T23:50:55.096Z,2.01
2023-01-26T23:53:21.467Z,2.05
2023-01-26T23:55:47.845Z,2.01
2023-01-26T23:58:14.255Z,2.12
